sensor_id;sensor_type;location;lat;lon;timestamp;pressure;altitude;pressure_sealevel;temperature;humidity
13612;BME280;6877;51.436;6.774;2023-07-02T00:02:19;100225.13;;;16.87;100.00
13612;BME280;6877;51.436;6.774;2023-07-02T00:04:51;100221.44;;;16.89;100.00
13612;BME280;6877;51.436;6.774;2023-07-02T00:07:22;100223.22;;;16.89;100.00
13612;BME280;6877;51.436;6.774;2023-07-02T00:09:54;100223.22;;;16.89;100.00
13612;BME280;6877;51.436;6.774;2023-07-02T00:12:20;100222.47;;;16.87;100.00
13612;BME280;6877;51.436;6.774;2023-07-02T00:14:47;100214.56;;;16.87;100.00
13612;BME280;6877;51.436;6.774;2023-07-02T00:17:14;100224.25;;;16.86;100.00
13612;BME280;6877;51.436;6.774;2023-07-02T00:19:45;100222.53;;;16.85;100.00
13612;BME280;6877;51.436;6.774;2023-07-02T00:22:12;100220.91;;;16.83;100.00
13612;BME280;6877;51.436;6.774;2023-07-02T00:24:38;100222.72;;;16.82;100.00
13612;BME280;6877;51.436;6.774;2023-07-02T00:27:10;100221.00;;;16.81;99.76
13612;BME280;6877;51.436;6.774;2023-07-02T00:29:41;100220.91;;;16.83;99.65
13612;BME280;6877;51.436;6.774;2023-07-02T00:32:08;100219.13;;;16.83;99.60
13612;BME280;6877;51.436;6.774;2023-07-02T00:34:39;100215.72;;;16.81;99.06
13612;BME280;6877;51.436;6.774;2023-07-02T00:37:06;100208.81;;;16.79;98.86
13612;BME280;6877;51.436;6.774;2023-07-02T00:39:32;100215.72;;;16.81;98.36
13612;BME280;6877;51.436;6.774;2023-07-02T00:42:04;100217.59;;;16.79;98.09
13612;BME280;6877;51.436;6.774;2023-07-02T00:44:35;100209.09;;;16.73;98.21
13612;BME280;6877;51.436;6.774;2023-07-02T00:47:08;100209.34;;;16.68;98.22
13612;BME280;6877;51.436;6.774;2023-07-02T00:49:34;100217.28;;;16.68;98.04
13612;BME280;6877;51.436;6.774;2023-07-02T00:52:01;100209.34;;;16.68;97.75
13612;BME280;6877;51.436;6.774;2023-07-02T00:54:28;100209.50;;;16.65;97.50
13612;BME280;6877;51.436;6.774;2023-07-02T00:56:55;100201.81;;;16.60;97.43
13612;BME280;6877;51.436;6.774;2023-07-02T00:59:22;100204.69;;;16.56;97.57
13612;BME280;6877;51.436;6.774;2023-07-02T01:01:48;100207.41;;;16.54;97.06
13612;BME280;6877;51.436;6.774;2023-07-02T01:04:19;100197.09;;;16.50;97.50
13612;BME280;6877;51.436;6.774;2023-07-02T01:06:45;100199.03;;;16.46;97.95
13612;BME280;6877;51.436;6.774;2023-07-02T01:09:11;100201.22;;;16.38;98.44
13612;BME280;6877;51.436;6.774;2023-07-02T01:11:45;100194.53;;;16.31;99.15
13612;BME280;6877;51.436;6.774;2023-07-02T01:14:36;100209.84;;;16.24;99.86
13612;BME280;6877;51.436;6.774;2023-07-02T01:17:05;100203.09;;;16.18;100.00
13612;BME280;6877;51.436;6.774;2023-07-02T01:22:10;100185.47;;;16.02;100.00
13612;BME280;6877;51.436;6.774;2023-07-02T01:24:42;100180.66;;;15.92;100.00
13612;BME280;6877;51.436;6.774;2023-07-02T01:27:09;100169.75;;;15.81;100.00
13612;BME280;6877;51.436;6.774;2023-07-02T01:29:42;100185.03;;;15.74;100.00
13612;BME280;6877;51.436;6.774;2023-07-02T01:32:10;100194.03;;;15.70;100.00
13612;BME280;6877;51.436;6.774;2023-07-02T01:34:37;100206.53;;;15.65;100.00
13612;BME280;6877;51.436;6.774;2023-07-02T01:37:09;100213.53;;;15.66;100.00
13612;BME280;6877;51.436;6.774;2023-07-02T01:39:40;100211.81;;;15.67;100.00
13612;BME280;6877;51.436;6.774;2023-07-02T01:42:11;100209.00;;;15.70;100.00
13612;BME280;6877;51.436;6.774;2023-07-02T01:44:38;100208.53;;;15.79;100.00
13612;BME280;6877;51.436;6.774;2023-07-02T01:47:05;100210.88;;;15.85;100.00
13612;BME280;6877;51.436;6.774;2023-07-02T01:49:37;100219.59;;;15.87;100.00
13612;BME280;6877;51.436;6.774;2023-07-02T01:52:05;100218.50;;;15.91;100.00
13612;BME280;6877;51.436;6.774;2023-07-02T01:54:32;100225.34;;;15.95;100.00
13612;BME280;6877;51.436;6.774;2023-07-02T01:56:59;100227.06;;;15.96;100.00
13612;BME280;6877;51.436;6.774;2023-07-02T01:59:26;100224.25;;;15.99;99.75
13612;BME280;6877;51.436;6.774;2023-07-02T02:01:57;100224.13;;;16.03;99.74
13612;BME280;6877;51.436;6.774;2023-07-02T02:04:23;100235.47;;;16.05;99.08
13612;BME280;6877;51.436;6.774;2023-07-02T02:06:50;100238.09;;;16.05;98.91
13612;BME280;6877;51.436;6.774;2023-07-02T02:09:23;100226.59;;;16.06;98.72
13612;BME280;6877;51.436;6.774;2023-07-02T02:11:54;100233.44;;;16.10;97.56
13612;BME280;6877;51.436;6.774;2023-07-02T02:14:21;100231.72;;;16.09;97.37
13612;BME280;6877;51.436;6.774;2023-07-02T02:16:48;100242.28;;;16.09;96.91
13612;BME280;6877;51.436;6.774;2023-07-02T02:19:14;100235.28;;;16.08;96.78
13612;BME280;6877;51.436;6.774;2023-07-02T02:21:41;100240.00;;;16.01;96.65
13612;BME280;6877;51.436;6.774;2023-07-02T02:24:08;100240.94;;;16.00;96.66
13612;BME280;6877;51.436;6.774;2023-07-02T02:26:35;100241.94;;;15.97;96.92
13612;BME280;6877;51.436;6.774;2023-07-02T02:29:01;100237.53;;;15.98;96.98
13612;BME280;6877;51.436;6.774;2023-07-02T02:31:28;100247.06;;;16.01;96.43
13612;BME280;6877;51.436;6.774;2023-07-02T02:33:54;100250.50;;;16.03;96.39
13612;BME280;6877;51.436;6.774;2023-07-02T02:36:21;100247.03;;;16.02;96.23
13612;BME280;6877;51.436;6.774;2023-07-02T02:38:52;100249.50;;;16.05;95.94
13612;BME280;6877;51.436;6.774;2023-07-02T02:41:24;100251.91;;;16.10;95.77
13612;BME280;6877;51.436;6.774;2023-07-02T02:43:55;100250.13;;;16.10;95.75
13612;BME280;6877;51.436;6.774;2023-07-02T02:46:26;100245.84;;;16.08;95.31
13612;BME280;6877;51.436;6.774;2023-07-02T02:48:58;100242.28;;;16.09;95.50
13612;BME280;6877;51.436;6.774;2023-07-02T02:51:24;100246.78;;;16.07;95.26
13612;BME280;6877;51.436;6.774;2023-07-02T02:53:51;100255.53;;;16.07;95.19
13612;BME280;6877;51.436;6.774;2023-07-02T02:56:22;100253.94;;;16.05;95.28
13612;BME280;6877;51.436;6.774;2023-07-02T02:58:49;100247.16;;;15.99;95.50
13612;BME280;6877;51.436;6.774;2023-07-02T03:01:15;100248.03;;;15.99;95.86
13612;BME280;6877;51.436;6.774;2023-07-02T03:03:42;100251.44;;;16.02;95.56
13612;BME280;6877;51.436;6.774;2023-07-02T03:06:16;100255.28;;;15.94;95.52
13612;BME280;6877;51.436;6.774;2023-07-02T03:08:42;100256.22;;;15.93;95.80
13612;BME280;6877;51.436;6.774;2023-07-02T03:11:09;100257.31;;;15.89;95.96
13612;BME280;6877;51.436;6.774;2023-07-02T03:13:40;100258.59;;;15.81;96.17
13612;BME280;6877;51.436;6.774;2023-07-02T03:16:07;100266.97;;;15.71;96.95
13612;BME280;6877;51.436;6.774;2023-07-02T03:18:33;100264.81;;;15.61;97.32
13612;BME280;6877;51.436;6.774;2023-07-02T03:21:00;100275.38;;;15.61;97.69
13612;BME280;6877;51.436;6.774;2023-07-02T03:23:27;100269.94;;;15.64;97.72
13612;BME280;6877;51.436;6.774;2023-07-02T03:25:58;100275.03;;;15.68;97.63
13612;BME280;6877;51.436;6.774;2023-07-02T03:28:25;100271.16;;;15.75;97.38
13612;BME280;6877;51.436;6.774;2023-07-02T03:30:51;100274.44;;;15.81;96.73
13612;BME280;6877;51.436;6.774;2023-07-02T03:33:18;100272.75;;;15.80;96.82
13612;BME280;6877;51.436;6.774;2023-07-02T03:35:44;100283.44;;;15.77;96.71
13612;BME280;6877;51.436;6.774;2023-07-02T03:38:10;100281.84;;;15.72;96.95
13612;BME280;6877;51.436;6.774;2023-07-02T03:40:37;100290.78;;;15.70;97.03
13612;BME280;6877;51.436;6.774;2023-07-02T03:43:08;100280.94;;;15.73;97.49
13612;BME280;6877;51.436;6.774;2023-07-02T03:45:35;100287.84;;;15.76;96.91
13612;BME280;6877;51.436;6.774;2023-07-02T03:48:01;100281.66;;;15.77;97.16
13612;BME280;6877;51.436;6.774;2023-07-02T03:50:32;100292.13;;;15.79;96.74
13612;BME280;6877;51.436;6.774;2023-07-02T03:52:59;100300.03;;;15.79;96.77
13612;BME280;6877;51.436;6.774;2023-07-02T03:55:25;100301.81;;;15.78;96.90
13612;BME280;6877;51.436;6.774;2023-07-02T03:57:51;100295.69;;;15.78;97.07
13612;BME280;6877;51.436;6.774;2023-07-02T04:00:23;100310.66;;;15.77;96.87
13612;BME280;6877;51.436;6.774;2023-07-02T04:02:49;100308.94;;;15.76;97.10
13612;BME280;6877;51.436;6.774;2023-07-02T04:05:21;100309.72;;;15.78;96.59
13612;BME280;6877;51.436;6.774;2023-07-02T04:07:52;100311.53;;;15.78;96.54
13612;BME280;6877;51.436;6.774;2023-07-02T04:10:18;100312.47;;;15.77;96.84
13612;BME280;6877;51.436;6.774;2023-07-02T04:12:45;100319.44;;;15.78;96.77
13612;BME280;6877;51.436;6.774;2023-07-02T04:15:11;100314.16;;;15.78;96.99
13612;BME280;6877;51.436;6.774;2023-07-02T04:17:43;100327.13;;;15.82;96.50
13612;BME280;6877;51.436;6.774;2023-07-02T04:20:09;100330.69;;;15.81;96.67
13612;BME280;6877;51.436;6.774;2023-07-02T04:22:41;100320.94;;;15.83;96.58
13612;BME280;6877;51.436;6.774;2023-07-02T04:25:07;100335.78;;;15.86;96.27
13612;BME280;6877;51.436;6.774;2023-07-02T04:27:34;100331.41;;;15.85;96.43
13612;BME280;6877;51.436;6.774;2023-07-02T04:30:06;100333.13;;;15.86;96.67
13612;BME280;6877;51.436;6.774;2023-07-02T04:32:34;100330.31;;;15.89;96.07
13612;BME280;6877;51.436;6.774;2023-07-02T04:35:04;100336.41;;;15.91;96.26
13612;BME280;6877;51.436;6.774;2023-07-02T04:37:36;100347.66;;;15.94;95.99
13612;BME280;6877;51.436;6.774;2023-07-02T04:40:08;100340.31;;;16.01;95.96
13612;BME280;6877;51.436;6.774;2023-07-02T04:42:39;100342.59;;;16.09;95.18
13612;BME280;6877;51.436;6.774;2023-07-02T04:45:06;100347.88;;;16.09;95.24
13612;BME280;6877;51.436;6.774;2023-07-02T04:47:39;100352.84;;;16.15;95.10
13612;BME280;6877;51.436;6.774;2023-07-02T04:50:06;100350.97;;;16.17;94.58
13612;BME280;6877;51.436;6.774;2023-07-02T04:52:32;100348.19;;;16.20;94.62
13612;BME280;6877;51.436;6.774;2023-07-02T04:54:58;100352.56;;;16.21;94.45
13612;BME280;6877;51.436;6.774;2023-07-02T04:57:25;100359.50;;;16.24;94.20
13612;BME280;6877;51.436;6.774;2023-07-02T04:59:51;100364.53;;;16.28;94.19
13612;BME280;6877;51.436;6.774;2023-07-02T05:02:23;100358.03;;;16.35;93.79
13612;BME280;6877;51.436;6.774;2023-07-02T05:04:49;100362.38;;;16.36;93.26
13612;BME280;6877;51.436;6.774;2023-07-02T05:07:16;100367.38;;;16.42;93.63
13612;BME280;6877;51.436;6.774;2023-07-02T05:09:43;100360.91;;;16.48;93.39
13612;BME280;6877;51.436;6.774;2023-07-02T05:12:09;100362.34;;;16.55;92.52
13612;BME280;6877;51.436;6.774;2023-07-02T05:14:35;100371.03;;;16.57;92.25
13612;BME280;6877;51.436;6.774;2023-07-02T05:17:03;100370.31;;;16.54;92.05
13612;BME280;6877;51.436;6.774;2023-07-02T05:19:29;100369.69;;;16.49;92.25
13612;BME280;6877;51.436;6.774;2023-07-02T05:21:56;100370.47;;;16.51;92.57
13612;BME280;6877;51.436;6.774;2023-07-02T05:24:22;100375.75;;;16.51;92.37
13612;BME280;6877;51.436;6.774;2023-07-02T05:26:48;100380.97;;;16.52;92.12
13612;BME280;6877;51.436;6.774;2023-07-02T05:29:21;100380.91;;;16.54;92.12
13612;BME280;6877;51.436;6.774;2023-07-02T05:31:48;100383.09;;;16.63;91.70
13612;BME280;6877;51.436;6.774;2023-07-02T05:34:14;100389.78;;;16.70;91.20
13612;BME280;6877;51.436;6.774;2023-07-02T05:36:41;100382.50;;;16.75;90.70
13612;BME280;6877;51.436;6.774;2023-07-02T05:39:12;100392.13;;;16.76;90.30
13612;BME280;6877;51.436;6.774;2023-07-02T05:41:38;100387.81;;;16.74;90.24
13612;BME280;6877;51.436;6.774;2023-07-02T05:44:05;100390.06;;;16.64;89.62
13612;BME280;6877;51.436;6.774;2023-07-02T05:46:36;100389.31;;;16.62;90.00
13612;BME280;6877;51.436;6.774;2023-07-02T05:49:03;100397.84;;;16.67;89.37
13612;BME280;6877;51.436;6.774;2023-07-02T05:51:37;100401.84;;;16.76;89.05
13612;BME280;6877;51.436;6.774;2023-07-02T05:54:03;100402.72;;;16.76;88.20
13612;BME280;6877;51.436;6.774;2023-07-02T05:56:30;100400.06;;;16.76;87.87
13612;BME280;6877;51.436;6.774;2023-07-02T05:58:56;100401.56;;;16.82;87.50
13612;BME280;6877;51.436;6.774;2023-07-02T06:01:23;100412.38;;;16.95;86.71
13612;BME280;6877;51.436;6.774;2023-07-02T06:03:50;100412.44;;;17.10;86.04
13612;BME280;6877;51.436;6.774;2023-07-02T06:06:16;100412.19;;;17.32;85.26
13612;BME280;6877;51.436;6.774;2023-07-02T06:08:43;100410.91;;;17.57;84.30
13612;BME280;6877;51.436;6.774;2023-07-02T06:11:10;100412.81;;;17.71;81.56
13612;BME280;6877;51.436;6.774;2023-07-02T06:13:36;100408.38;;;17.89;79.38
13612;BME280;6877;51.436;6.774;2023-07-02T06:16:03;100409.56;;;17.99;77.76
13612;BME280;6877;51.436;6.774;2023-07-02T06:18:30;100421.53;;;18.06;76.72
13612;BME280;6877;51.436;6.774;2023-07-02T06:21:01;100423.00;;;18.12;75.52
13612;BME280;6877;51.436;6.774;2023-07-02T06:23:29;100425.22;;;18.19;74.27
13612;BME280;6877;51.436;6.774;2023-07-02T06:25:56;100426.16;;;18.18;73.19
13612;BME280;6877;51.436;6.774;2023-07-02T06:28:26;100428.72;;;18.20;72.33
13612;BME280;6877;51.436;6.774;2023-07-02T06:30:52;100431.22;;;18.23;72.19
13612;BME280;6877;51.436;6.774;2023-07-02T06:33:19;100430.53;;;18.19;71.63
13612;BME280;6877;51.436;6.774;2023-07-02T06:35:50;100432.41;;;18.17;71.89
13612;BME280;6877;51.436;6.774;2023-07-02T06:38:22;100437.69;;;18.33;71.22
13612;BME280;6877;51.436;6.774;2023-07-02T06:40:48;100436.50;;;18.55;69.55
13612;BME280;6877;51.436;6.774;2023-07-02T06:43:15;100440.94;;;18.70;69.15
13612;BME280;6877;51.436;6.774;2023-07-02T06:45:41;100439.66;;;18.77;68.41
13612;BME280;6877;51.436;6.774;2023-07-02T06:48:08;100441.84;;;18.85;67.38
13612;BME280;6877;51.436;6.774;2023-07-02T06:50:43;100445.78;;;18.93;66.79
13612;BME280;6877;51.436;6.774;2023-07-02T06:53:09;100447.03;;;19.02;65.70
13612;BME280;6877;51.436;6.774;2023-07-02T06:55:36;100457.38;;;19.07;65.29
13612;BME280;6877;51.436;6.774;2023-07-02T06:58:04;100458.81;;;19.12;65.52
13612;BME280;6877;51.436;6.774;2023-07-02T07:00:36;100457.59;;;19.18;65.86
13612;BME280;6877;51.436;6.774;2023-07-02T07:03:03;100464.75;;;19.32;65.88
13612;BME280;6877;51.436;6.774;2023-07-02T07:05:33;100463.34;;;19.40;66.02
13612;BME280;6877;51.436;6.774;2023-07-02T07:08:02;100464.00;;;19.44;66.26
13612;BME280;6877;51.436;6.774;2023-07-02T07:10:29;100472.84;;;19.59;64.70
13612;BME280;6877;51.436;6.774;2023-07-02T07:13:03;100466.06;;;19.69;63.95
13612;BME280;6877;51.436;6.774;2023-07-02T07:15:33;100469.38;;;19.73;64.37
13612;BME280;6877;51.436;6.774;2023-07-02T07:18:02;100462.19;;;19.75;65.11
13612;BME280;6877;51.436;6.774;2023-07-02T07:20:30;100466.91;;;19.70;61.48
13612;BME280;6877;51.436;6.774;2023-07-02T07:22:57;100476.91;;;19.80;61.06
13612;BME280;6877;51.436;6.774;2023-07-02T07:25:23;100474.22;;;19.95;60.98
13612;BME280;6877;51.436;6.774;2023-07-02T07:27:51;100475.63;;;20.29;57.94
13612;BME280;6877;51.436;6.774;2023-07-02T07:30:18;100487.41;;;20.53;53.44
13612;BME280;6877;51.436;6.774;2023-07-02T07:32:50;100491.72;;;20.69;51.46
13612;BME280;6877;51.436;6.774;2023-07-02T07:35:17;100501.84;;;20.76;49.78
13612;BME280;6877;51.436;6.774;2023-07-02T07:37:44;100500.53;;;20.96;48.97
13612;BME280;6877;51.436;6.774;2023-07-02T07:40:11;100498.56;;;21.00;48.21
13612;BME280;6877;51.436;6.774;2023-07-02T07:42:43;100504.75;;;21.13;47.53
13612;BME280;6877;51.436;6.774;2023-07-02T07:45:11;100504.44;;;21.18;47.49
13612;BME280;6877;51.436;6.774;2023-07-02T07:47:38;100492.28;;;21.01;46.90
13612;BME280;6877;51.436;6.774;2023-07-02T07:50:05;100497.59;;;21.01;47.69
13612;BME280;6877;51.436;6.774;2023-07-02T07:52:40;100496.06;;;21.24;47.09
13612;BME280;6877;51.436;6.774;2023-07-02T07:55:07;100507.97;;;21.58;46.96
13612;BME280;6877;51.436;6.774;2023-07-02T07:57:35;100507.13;;;21.96;45.94
13612;BME280;6877;51.436;6.774;2023-07-02T08:00:07;100510.31;;;22.76;43.16
13612;BME280;6877;51.436;6.774;2023-07-02T08:02:35;100519.03;;;23.15;40.80
13612;BME280;6877;51.436;6.774;2023-07-02T08:05:02;100526.72;;;23.66;38.98
13612;BME280;6877;51.436;6.774;2023-07-02T08:07:33;100527.91;;;24.20;37.70
13612;BME280;6877;51.436;6.774;2023-07-02T08:10:00;100531.53;;;23.96;36.79
13612;BME280;6877;51.436;6.774;2023-07-02T08:12:26;100534.00;;;24.44;36.73
13612;BME280;6877;51.436;6.774;2023-07-02T08:14:55;100527.28;;;25.48;34.10
13612;BME280;6877;51.436;6.774;2023-07-02T08:17:22;100536.75;;;26.25;33.23
13612;BME280;6877;51.436;6.774;2023-07-02T08:19:48;100544.44;;;28.06;30.40
13612;BME280;6877;51.436;6.774;2023-07-02T08:22:19;100537.88;;;27.32;29.49
13612;BME280;6877;51.436;6.774;2023-07-02T08:24:46;100552.75;;;25.42;32.67
13612;BME280;6877;51.436;6.774;2023-07-02T08:27:20;100544.06;;;24.41;34.58
13612;BME280;6877;51.436;6.774;2023-07-02T08:29:47;100552.78;;;25.63;32.73
13612;BME280;6877;51.436;6.774;2023-07-02T08:32:14;100561.38;;;25.46;32.66
13612;BME280;6877;51.436;6.774;2023-07-02T08:34:41;100544.66;;;23.99;34.49
13612;BME280;6877;51.436;6.774;2023-07-02T08:37:07;100549.00;;;22.95;36.92
13612;BME280;6877;51.436;6.774;2023-07-02T08:39:34;100533.69;;;22.23;37.40
13612;BME280;6877;51.436;6.774;2023-07-02T08:42:02;100555.44;;;22.17;37.06
13612;BME280;6877;51.436;6.774;2023-07-02T08:44:28;100542.88;;;22.68;35.97
13612;BME280;6877;51.436;6.774;2023-07-02T08:47:00;100547.31;;;23.18;34.85
13612;BME280;6877;51.436;6.774;2023-07-02T08:49:27;100550.75;;;23.66;34.56
13612;BME280;6877;51.436;6.774;2023-07-02T08:51:54;100554.09;;;24.93;32.40
13612;BME280;6877;51.436;6.774;2023-07-02T08:54:20;100566.63;;;25.48;31.96
13612;BME280;6877;51.436;6.774;2023-07-02T08:56:47;100555.97;;;26.61;30.13
13612;BME280;6877;51.436;6.774;2023-07-02T08:59:18;100556.78;;;29.01;27.12
13612;BME280;6877;51.436;6.774;2023-07-02T09:01:52;100571.69;;;31.38;23.68
13612;BME280;6877;51.436;6.774;2023-07-02T09:04:21;100573.78;;;32.80;22.63
13612;BME280;6877;51.436;6.774;2023-07-02T09:06:48;100589.50;;;34.23;21.26
13612;BME280;6877;51.436;6.774;2023-07-02T09:09:15;100577.47;;;35.77;19.77
13612;BME280;6877;51.436;6.774;2023-07-02T09:11:51;100591.03;;;36.55;18.82
13612;BME280;6877;51.436;6.774;2023-07-02T09:14:27;100594.75;;;36.95;18.44
13612;BME280;6877;51.436;6.774;2023-07-02T09:17:08;100588.16;;;37.64;17.64
13612;BME280;6877;51.436;6.774;2023-07-02T09:19:36;100599.66;;;38.46;17.19
13612;BME280;6877;51.436;6.774;2023-07-02T09:22:03;100583.09;;;38.21;17.49
13612;BME280;6877;51.436;6.774;2023-07-02T09:24:31;100574.97;;;37.68;17.60
13612;BME280;6877;51.436;6.774;2023-07-02T09:27:03;100579.06;;;34.86;20.18
13612;BME280;6877;51.436;6.774;2023-07-02T09:29:31;100570.66;;;31.96;22.87
13612;BME280;6877;51.436;6.774;2023-07-02T09:32:04;100563.00;;;29.19;26.31
13612;BME280;6877;51.436;6.774;2023-07-02T09:34:35;100550.09;;;28.50;28.13
13612;BME280;6877;51.436;6.774;2023-07-02T09:37:07;100561.47;;;29.34;27.01
13612;BME280;6877;51.436;6.774;2023-07-02T09:39:38;100558.09;;;28.69;27.35
13612;BME280;6877;51.436;6.774;2023-07-02T09:42:10;100556.53;;;28.67;27.67
13612;BME280;6877;51.436;6.774;2023-07-02T09:44:38;100566.09;;;28.14;28.28
13612;BME280;6877;51.436;6.774;2023-07-02T09:47:05;100560.09;;;26.34;31.27
13612;BME280;6877;51.436;6.774;2023-07-02T09:49:36;100559.47;;;25.37;32.98
13612;BME280;6877;51.436;6.774;2023-07-02T09:52:06;100565.22;;;24.33;33.32
13612;BME280;6877;51.436;6.774;2023-07-02T09:54:33;100555.19;;;23.54;34.27
13612;BME280;6877;51.436;6.774;2023-07-02T09:57:00;100560.09;;;22.88;35.75
13612;BME280;6877;51.436;6.774;2023-07-02T09:59:28;100550.59;;;22.35;36.64
13612;BME280;6877;51.436;6.774;2023-07-02T10:01:55;100564.28;;;22.17;37.05
13612;BME280;6877;51.436;6.774;2023-07-02T10:04:22;100565.66;;;21.97;37.46
13612;BME280;6877;51.436;6.774;2023-07-02T10:06:57;100567.59;;;22.21;37.73
13612;BME280;6877;51.436;6.774;2023-07-02T10:09:54;100560.63;;;23.42;35.51
13612;BME280;6877;51.436;6.774;2023-07-02T10:12:28;100572.78;;;24.61;33.14
13612;BME280;6877;51.436;6.774;2023-07-02T10:14:58;100585.59;;;25.77;30.68
13612;BME280;6877;51.436;6.774;2023-07-02T10:17:34;100582.28;;;27.65;28.19
13612;BME280;6877;51.436;6.774;2023-07-02T10:20:03;100584.00;;;28.70;26.44
13612;BME280;6877;51.436;6.774;2023-07-02T10:22:49;100580.44;;;29.07;25.40
13612;BME280;6877;51.436;6.774;2023-07-02T10:25:26;100592.50;;;29.74;25.38
13612;BME280;6877;51.436;6.774;2023-07-02T10:27:53;100595.47;;;31.26;23.39
13612;BME280;6877;51.436;6.774;2023-07-02T10:30:35;100590.94;;;31.84;22.62
13612;BME280;6877;51.436;6.774;2023-07-02T10:33:11;100600.44;;;30.54;23.89
13612;BME280;6877;51.436;6.774;2023-07-02T10:35:43;100586.69;;;28.98;25.18
13612;BME280;6877;51.436;6.774;2023-07-02T10:38:19;100584.69;;;27.98;27.26
13612;BME280;6877;51.436;6.774;2023-07-02T10:40:46;100587.09;;;27.42;27.62
13612;BME280;6877;51.436;6.774;2023-07-02T10:43:13;100582.16;;;27.47;27.71
13612;BME280;6877;51.436;6.774;2023-07-02T10:45:40;100579.47;;;26.68;28.73
13612;BME280;6877;51.436;6.774;2023-07-02T10:48:09;100583.19;;;25.95;29.99
13612;BME280;6877;51.436;6.774;2023-07-02T10:50:36;100571.56;;;25.52;30.86
13612;BME280;6877;51.436;6.774;2023-07-02T10:53:03;100567.63;;;24.81;31.60
13612;BME280;6877;51.436;6.774;2023-07-02T10:55:34;100570.03;;;23.94;33.37
13612;BME280;6877;51.436;6.774;2023-07-02T10:58:09;100577.19;;;23.58;34.20
13612;BME280;6877;51.436;6.774;2023-07-02T11:00:46;100575.69;;;22.95;34.77
13612;BME280;6877;51.436;6.774;2023-07-02T11:03:22;100574.09;;;23.16;34.52
13612;BME280;6877;51.436;6.774;2023-07-02T11:05:49;100576.34;;;25.05;32.12
13612;BME280;6877;51.436;6.774;2023-07-02T11:08:17;100574.88;;;25.12;31.28
13612;BME280;6877;51.436;6.774;2023-07-02T11:10:44;100565.44;;;24.97;31.16
13612;BME280;6877;51.436;6.774;2023-07-02T11:13:18;100574.53;;;25.70;30.76
13612;BME280;6877;51.436;6.774;2023-07-02T11:15:45;100567.78;;;26.98;28.32
13612;BME280;6877;51.436;6.774;2023-07-02T11:18:13;100580.59;;;27.55;27.15
13612;BME280;6877;51.436;6.774;2023-07-02T11:20:42;100577.69;;;26.98;27.21
13612;BME280;6877;51.436;6.774;2023-07-02T11:23:24;100578.47;;;25.87;27.99
13612;BME280;6877;51.436;6.774;2023-07-02T11:26:08;100575.34;;;25.06;29.34
13612;BME280;6877;51.436;6.774;2023-07-02T11:28:35;100578.53;;;25.43;28.68
13612;BME280;6877;51.436;6.774;2023-07-02T11:31:02;100581.09;;;27.10;26.49
13612;BME280;6877;51.436;6.774;2023-07-02T11:33:33;100582.03;;;28.35;24.37
13612;BME280;6877;51.436;6.774;2023-07-02T11:36:00;100588.34;;;29.08;23.21
13612;BME280;6877;51.436;6.774;2023-07-02T11:38:28;100587.22;;;27.70;24.60
13612;BME280;6877;51.436;6.774;2023-07-02T11:40:56;100584.94;;;26.57;26.51
13612;BME280;6877;51.436;6.774;2023-07-02T11:43:23;100584.25;;;25.82;27.23
13612;BME280;6877;51.436;6.774;2023-07-02T11:45:49;100579.94;;;25.38;27.94
13612;BME280;6877;51.436;6.774;2023-07-02T11:48:16;100581.34;;;24.87;28.96
13612;BME280;6877;51.436;6.774;2023-07-02T11:50:42;100577.09;;;24.96;29.32
13612;BME280;6877;51.436;6.774;2023-07-02T11:53:09;100580.91;;;24.71;29.93
13612;BME280;6877;51.436;6.774;2023-07-02T11:55:36;100579.59;;;24.65;29.96
13612;BME280;6877;51.436;6.774;2023-07-02T11:58:02;100585.44;;;24.48;30.64
13612;BME280;6877;51.436;6.774;2023-07-02T12:00:29;100586.28;;;24.48;31.09
13612;BME280;6877;51.436;6.774;2023-07-02T12:02:56;100588.28;;;24.00;31.60
13612;BME280;6877;51.436;6.774;2023-07-02T12:05:22;100582.22;;;23.39;32.61
13612;BME280;6877;51.436;6.774;2023-07-02T12:07:49;100581.31;;;23.03;33.41
13612;BME280;6877;51.436;6.774;2023-07-02T12:10:15;100573.63;;;23.11;33.83
13612;BME280;6877;51.436;6.774;2023-07-02T12:12:42;100582.72;;;23.44;33.44
13612;BME280;6877;51.436;6.774;2023-07-02T12:15:09;100580.38;;;23.63;32.95
13612;BME280;6877;51.436;6.774;2023-07-02T12:17:35;100592.09;;;23.73;33.24
13612;BME280;6877;51.436;6.774;2023-07-02T12:20:02;100588.28;;;24.11;32.79
13612;BME280;6877;51.436;6.774;2023-07-02T12:22:29;100589.53;;;24.18;32.92
13612;BME280;6877;51.436;6.774;2023-07-02T12:24:55;100585.38;;;24.03;32.96
13612;BME280;6877;51.436;6.774;2023-07-02T12:27:23;100590.09;;;23.64;33.71
13612;BME280;6877;51.436;6.774;2023-07-02T12:29:51;100597.81;;;23.21;34.45
13612;BME280;6877;51.436;6.774;2023-07-02T12:32:18;100593.75;;;23.15;34.67
13612;BME280;6877;51.436;6.774;2023-07-02T12:34:44;100589.28;;;23.16;34.95
13612;BME280;6877;51.436;6.774;2023-07-02T12:37:11;100581.88;;;23.19;34.99
13612;BME280;6877;51.436;6.774;2023-07-02T12:39:37;100583.16;;;22.89;35.19
13612;BME280;6877;51.436;6.774;2023-07-02T12:42:04;100585.91;;;23.01;35.64
13612;BME280;6877;51.436;6.774;2023-07-02T12:44:35;100583.13;;;23.26;34.89
13612;BME280;6877;51.436;6.774;2023-07-02T12:47:02;100589.22;;;23.52;35.00
13612;BME280;6877;51.436;6.774;2023-07-02T12:49:28;100590.66;;;23.80;34.59
13612;BME280;6877;51.436;6.774;2023-07-02T12:51:55;100603.75;;;23.72;34.36
13612;BME280;6877;51.436;6.774;2023-07-02T12:54:21;100592.50;;;23.91;34.15
13612;BME280;6877;51.436;6.774;2023-07-02T12:56:48;100591.94;;;24.10;33.93
13612;BME280;6877;51.436;6.774;2023-07-02T12:59:14;100596.06;;;24.03;34.15
13612;BME280;6877;51.436;6.774;2023-07-02T13:01:41;100595.56;;;23.87;34.41
13612;BME280;6877;51.436;6.774;2023-07-02T13:04:08;100603.88;;;23.71;34.88
13612;BME280;6877;51.436;6.774;2023-07-02T13:06:34;100597.22;;;23.52;34.59
13612;BME280;6877;51.436;6.774;2023-07-02T13:09:09;100601.13;;;23.59;35.01
13612;BME280;6877;51.436;6.774;2023-07-02T13:11:35;100597.19;;;23.76;34.70